createdAt,value
2022-08-29T00:00:17.828Z,15.60
2022-08-29T00:02:49.977Z,16.50
2022-08-29T00:05:19.016Z,15.07
2022-08-29T00:07:47.262Z,15.30
2022-08-29T00:10:16.182Z,15.70
2022-08-29T00:12:44.373Z,15.60
2022-08-29T00:15:14.115Z,16.23
2022-08-29T00:17:43.067Z,16.50
2022-08-29T00:20:16.431Z,15.80
2022-08-29T00:22:44.574Z,16.50
2022-08-29T00:25:14.876Z,15.33
2022-08-29T00:27:44.678Z,17.60
2022-08-29T00:30:18.095Z,15.80
2022-08-29T00:32:46.310Z,17.73
2022-08-29T00:35:17.733Z,16.53
2022-08-29T00:37:45.896Z,17.10
2022-08-29T00:40:16.650Z,17.40
2022-08-29T00:42:45.337Z,18.40
2022-08-29T00:45:14.712Z,16.87
2022-08-29T00:47:48.791Z,15.90
2022-08-29T00:50:25.085Z,18.43
2022-08-29T00:52:55.210Z,15.20
2022-08-29T00:55:26.584Z,17.27
2022-08-29T00:57:58.883Z,17.70
2022-08-29T01:00:28.092Z,18.73
2022-08-29T01:02:56.916Z,17.93
2022-08-29T01:05:27.446Z,17.90
2022-08-29T01:07:55.821Z,18.03
2022-08-29T01:10:41.578Z,17.70
2022-08-29T01:13:12.553Z,18.60
2022-08-29T01:15:44.022Z,17.33
2022-08-29T01:18:15.491Z,17.30
2022-08-29T01:20:55.623Z,16.23
2022-08-29T01:23:32.543Z,18.93
2022-08-29T01:26:03.935Z,19.30
2022-08-29T01:28:35.065Z,17.03
2022-08-29T01:31:07.586Z,17.50
2022-08-29T01:33:40.822Z,17.70
2022-08-29T01:36:10.921Z,18.77
2022-08-29T01:38:39.417Z,17.67
2022-08-29T01:41:10.733Z,18.50
2022-08-29T01:43:44.168Z,17.83
2022-08-29T01:46:15.024Z,18.63
2022-08-29T01:48:45.984Z,17.10
2022-08-29T01:51:15.999Z,19.30
2022-08-29T01:53:44.339Z,18.70
2022-08-29T01:56:17.139Z,19.63
2022-08-29T01:58:47.031Z,19.60
2022-08-29T02:01:18.375Z,18.40
2022-08-29T02:03:49.798Z,19.90
2022-08-29T02:06:18.030Z,18.97
2022-08-29T02:08:47.218Z,19.97
2022-08-29T02:11:17.943Z,17.60
2022-08-29T02:13:48.988Z,19.23
2022-08-29T02:16:17.376Z,18.30
2022-08-29T02:18:46.192Z,17.27
2022-08-29T02:21:17.087Z,18.10
2022-08-29T02:23:46.458Z,17.97
2022-08-29T02:26:15.963Z,18.93
2022-08-29T02:28:44.239Z,18.00
2022-08-29T02:31:12.518Z,18.53
2022-08-29T02:33:40.985Z,20.47
2022-08-29T02:36:09.759Z,19.17
2022-08-29T02:38:39.362Z,17.97
2022-08-29T02:41:11.263Z,17.70
2022-08-29T02:43:44.723Z,18.77
2022-08-29T02:46:17.951Z,18.30
2022-08-29T02:48:49.264Z,17.57
2022-08-29T02:51:31.224Z,17.20
2022-08-29T02:54:00.114Z,17.33
2022-08-29T02:56:28.840Z,18.43
2022-08-29T02:58:58.345Z,16.17
2022-08-29T03:01:27.231Z,17.77
2022-08-29T03:03:55.503Z,17.50
2022-08-29T03:06:24.357Z,17.43
2022-08-29T03:08:54.201Z,17.87
2022-08-29T03:11:23.363Z,17.30
2022-08-29T03:13:51.554Z,16.27
2022-08-29T03:16:25.088Z,15.73
2022-08-29T03:18:53.271Z,17.40
2022-08-29T03:21:24.959Z,16.73
2022-08-29T03:23:55.359Z,17.27
2022-08-29T03:26:24.284Z,16.67
2022-08-29T03:28:52.872Z,19.53
2022-08-29T03:31:21.111Z,17.90
2022-08-29T03:33:50.917Z,21.13
2022-08-29T03:36:19.268Z,16.70
2022-08-29T03:38:48.248Z,19.23
2022-08-29T03:41:22.138Z,19.53
2022-08-29T03:43:50.432Z,17.73
2022-08-29T03:46:18.754Z,17.67
2022-08-29T03:48:46.883Z,16.97
2022-08-29T03:51:16.616Z,19.27
2022-08-29T03:53:45.945Z,17.33
2022-08-29T03:56:18.109Z,18.77
2022-08-29T03:58:51.909Z,19.00
2022-08-29T04:01:22.476Z,18.43
2022-08-29T04:03:51.446Z,19.13
2022-08-29T04:06:22.430Z,18.40
2022-08-29T04:08:51.665Z,20.13
2022-08-29T04:11:20.779Z,17.80
2022-08-29T04:13:49.766Z,18.97
2022-08-29T04:16:21.212Z,18.60
2022-08-29T04:18:49.632Z,19.80
2022-08-29T04:21:18.544Z,19.47
2022-08-29T04:23:48.258Z,18.60
2022-08-29T04:26:35.977Z,19.40
2022-08-29T04:29:05.627Z,17.80
2022-08-29T04:31:33.776Z,18.17
2022-08-29T04:34:01.954Z,17.20
2022-08-29T04:36:30.143Z,17.40
2022-08-29T04:38:59.633Z,17.30
2022-08-29T04:41:27.963Z,17.50
2022-08-29T04:43:56.166Z,17.73
2022-08-29T04:46:24.928Z,17.47
2022-08-29T04:48:53.659Z,17.53
2022-08-29T04:51:22.154Z,19.50
2022-08-29T04:53:51.451Z,19.73
2022-08-29T04:56:22.698Z,18.83
2022-08-29T04:58:52.179Z,18.63
2022-08-29T05:01:27.109Z,19.50
2022-08-29T05:03:58.029Z,19.97
2022-08-29T05:06:26.379Z,19.70
2022-08-29T05:08:59.323Z,20.17
2022-08-29T05:11:31.125Z,19.73
2022-08-29T05:14:00.136Z,19.93
2022-08-29T05:16:29.989Z,20.80
2022-08-29T05:19:00.112Z,21.17
2022-08-29T05:21:34.940Z,19.93
2022-08-29T05:24:05.580Z,20.57
2022-08-29T05:26:38.954Z,18.63
2022-08-29T05:29:08.964Z,19.33
2022-08-29T05:31:38.236Z,17.20
2022-08-29T05:34:21.899Z,17.67
2022-08-29T05:36:54.663Z,19.60
2022-08-29T05:39:22.832Z,16.70
2022-08-29T05:41:55.701Z,16.20
2022-08-29T05:44:23.834Z,16.00
2022-08-29T05:46:52.303Z,15.70
2022-08-29T05:49:20.995Z,15.33
2022-08-29T05:51:49.670Z,15.30
2022-08-29T05:54:17.747Z,15.97
2022-08-29T05:56:45.892Z,15.60
2022-08-29T05:59:17.035Z,16.40
2022-08-29T06:01:46.239Z,16.70
2022-08-29T06:04:14.641Z,16.47
2022-08-29T06:06:43.119Z,16.23
2022-08-29T06:09:12.879Z,16.53
2022-08-29T06:11:42.024Z,16.70
2022-08-29T06:14:10.106Z,17.07
2022-08-29T06:16:39.685Z,16.50
2022-08-29T06:19:07.938Z,18.00
2022-08-29T06:21:36.063Z,16.43
2022-08-29T06:24:04.736Z,15.87
2022-08-29T06:26:32.906Z,17.53
2022-08-29T06:29:01.102Z,19.90
2022-08-29T06:31:29.660Z,18.40
2022-08-29T06:34:01.587Z,17.27
2022-08-29T06:36:31.062Z,18.53
2022-08-29T06:39:00.691Z,19.37
2022-08-29T06:41:29.934Z,20.47
2022-08-29T06:44:01.290Z,17.77
2022-08-29T06:46:31.248Z,17.03
2022-08-29T06:49:01.965Z,19.83
2022-08-29T06:51:33.203Z,18.10
2022-08-29T06:54:01.674Z,19.13
2022-08-29T06:56:31.056Z,20.67
2022-08-29T06:58:59.537Z,18.83
2022-08-29T07:01:28.187Z,19.37
2022-08-29T07:03:57.599Z,17.10
2022-08-29T07:06:29.653Z,15.20
2022-08-29T07:08:58.347Z,17.37
2022-08-29T07:11:27.980Z,15.80
2022-08-29T07:13:58.695Z,16.10
2022-08-29T07:16:27.408Z,15.83
2022-08-29T07:18:56.235Z,15.90
2022-08-29T07:21:27.315Z,15.43
2022-08-29T07:23:56.879Z,16.17
2022-08-29T07:26:28.706Z,15.50
2022-08-29T07:28:59.782Z,14.90
2022-08-29T07:31:32.264Z,15.10
2022-08-29T07:34:02.838Z,16.50
2022-08-29T07:36:34.546Z,15.60
2022-08-29T07:39:06.219Z,15.63
2022-08-29T07:41:34.431Z,17.13
2022-08-29T07:44:02.607Z,16.00
2022-08-29T07:46:31.587Z,15.40
2022-08-29T07:49:00.963Z,15.00
2022-08-29T07:51:30.582Z,15.40
2022-08-29T07:54:00.144Z,14.90
2022-08-29T07:56:37.035Z,14.50
2022-08-29T07:59:05.959Z,15.30
2022-08-29T08:01:35.640Z,14.47
2022-08-29T08:04:04.237Z,14.33
2022-08-29T08:06:32.515Z,13.33
2022-08-29T08:09:04.492Z,13.97
2022-08-29T08:11:32.864Z,13.73
2022-08-29T08:14:01.991Z,14.07
2022-08-29T08:16:30.760Z,14.13
2022-08-29T08:18:58.990Z,14.37
2022-08-29T08:21:28.221Z,13.60
2022-08-29T08:23:56.542Z,15.13
2022-08-29T08:26:26.864Z,13.70
2022-08-29T08:28:55.312Z,12.87
2022-08-29T08:31:24.095Z,12.90
2022-08-29T08:33:52.687Z,14.67
2022-08-29T08:36:23.187Z,16.60
2022-08-29T08:38:52.828Z,13.90
2022-08-29T08:41:40.402Z,14.03
2022-08-29T08:44:14.443Z,13.33
2022-08-29T08:46:44.899Z,13.60
2022-08-29T08:49:19.146Z,13.80
2022-08-29T08:51:51.260Z,13.80
2022-08-29T08:54:25.326Z,13.50
2022-08-29T08:57:02.383Z,13.37
2022-08-29T08:59:39.493Z,14.07
2022-08-29T09:02:35.446Z,14.93
2022-08-29T09:05:19.623Z,14.20
2022-08-29T09:07:57.650Z,15.20
2022-08-29T09:10:34.043Z,15.40
2022-08-29T09:13:11.455Z,13.73
2022-08-29T09:15:43.419Z,14.97
2022-08-29T09:18:21.818Z,15.00
2022-08-29T09:20:52.332Z,13.63
2022-08-29T09:23:25.796Z,14.47
2022-08-29T09:25:54.123Z,15.20
2022-08-29T09:28:24.461Z,15.13
2022-08-29T09:31:19.418Z,14.67
2022-08-29T09:33:50.286Z,14.87
2022-08-29T09:36:43.222Z,14.77
2022-08-29T09:39:23.030Z,15.10
2022-08-29T09:41:53.723Z,13.70
2022-08-29T09:44:27.104Z,14.87
2022-08-29T09:47:10.759Z,15.77
2022-08-29T09:49:40.361Z,15.43
2022-08-29T09:52:13.476Z,15.93
2022-08-29T09:54:42.153Z,13.90
2022-08-29T09:57:22.554Z,16.43
2022-08-29T10:00:11.428Z,16.73
2022-08-29T10:02:47.274Z,15.60
2022-08-29T10:05:34.893Z,16.50
2022-08-29T10:08:05.234Z,16.20
2022-08-29T10:10:36.252Z,17.40
2022-08-29T10:13:11.844Z,17.30
2022-08-29T10:15:50.796Z,17.53
2022-08-29T10:18:29.544Z,16.70
2022-08-29T10:21:16.821Z,16.03
2022-08-29T10:24:03.576Z,16.40
2022-08-29T10:26:43.209Z,16.80
2022-08-29T10:29:22.544Z,17.50
2022-08-29T10:32:02.594Z,15.93
2022-08-29T10:34:44.916Z,15.43
2022-08-29T10:37:20.016Z,16.50
2022-08-29T10:39:56.727Z,16.30
2022-08-29T10:42:27.292Z,16.00
2022-08-29T10:45:07.176Z,15.77
2022-08-29T10:47:41.828Z,15.03
2022-08-29T10:50:42.998Z,17.10
2022-08-29T10:53:20.346Z,16.10
2022-08-29T10:56:01.114Z,16.40
2022-08-29T10:58:40.719Z,17.57
2022-08-29T11:01:14.262Z,16.30
2022-08-29T11:03:52.945Z,15.13
2022-08-29T11:06:26.221Z,17.20
2022-08-29T11:08:59.571Z,14.10
2022-08-29T11:11:31.107Z,15.00
2022-08-29T11:14:05.795Z,16.47
2022-08-29T11:16:39.739Z,14.97
2022-08-29T11:19:17.862Z,16.50
2022-08-29T11:21:52.838Z,16.17
2022-08-29T11:24:31.717Z,15.70
2022-08-29T11:27:10.812Z,13.50
2022-08-29T11:29:47.970Z,17.53
2022-08-29T11:32:24.536Z,16.53
2022-08-29T11:35:07.169Z,16.20
2022-08-29T11:38:14.432Z,18.27
2022-08-29T11:41:27.998Z,18.10
2022-08-29T11:44:07.043Z,17.67
2022-08-29T11:46:40.786Z,13.87
2022-08-29T11:49:33.967Z,15.50
2022-08-29T11:52:18.961Z,14.10
2022-08-29T11:55:23.937Z,13.70
2022-08-29T11:58:03.811Z,13.20
2022-08-29T12:00:42.779Z,9.77
2022-08-29T12:03:56.321Z,11.27
2022-08-29T12:06:53.382Z,10.37
2022-08-29T12:09:47.394Z,11.10
2022-08-29T12:12:45.320Z,10.53
2022-08-29T12:15:52.904Z,12.10
2022-08-29T12:18:44.300Z,11.73
2022-08-29T12:21:42.111Z,11.20
2022-08-29T12:24:30.714Z,11.87
2022-08-29T12:27:00.735Z,12.20
2022-08-29T12:29:33.327Z,11.90
2022-08-29T12:32:35.074Z,11.47
2022-08-29T12:35:22.603Z,12.93
2022-08-29T12:38:07.396Z,12.93
2022-08-29T12:40:54.827Z,13.63
2022-08-29T12:43:35.203Z,13.30
2022-08-29T12:46:09.597Z,13.87
2022-08-29T12:48:42.795Z,14.63
2022-08-29T12:51:10.986Z,12.73
2022-08-29T12:53:39.135Z,12.67
2022-08-29T12:56:18.267Z,16.37
2022-08-29T12:58:55.888Z,15.57
2022-08-29T13:01:29.882Z,13.70
2022-08-29T13:04:01.102Z,14.00
2022-08-29T13:06:29.403Z,13.13
2022-08-29T13:08:57.950Z,13.93
2022-08-29T13:11:28.665Z,13.93
2022-08-29T13:14:13.256Z,13.50
2022-08-29T13:16:42.383Z,13.40
2022-08-29T13:19:20.135Z,12.23
2022-08-29T13:21:48.644Z,12.97
2022-08-29T13:24:20.459Z,12.13
2022-08-29T13:27:03.276Z,12.10
2022-08-29T13:29:39.155Z,11.53
2022-08-29T13:32:20.311Z,10.30
2022-08-29T13:35:06.459Z,13.10
2022-08-29T13:37:37.317Z,11.83
2022-08-29T13:40:31.641Z,12.27
2022-08-29T13:43:02.210Z,11.90
2022-08-29T13:45:31.783Z,11.90
2022-08-29T13:48:18.453Z,11.90
2022-08-29T13:53:16.027Z,11.70
2022-08-29T13:55:44.746Z,11.73
2022-08-29T13:58:14.950Z,12.53
2022-08-29T14:00:44.887Z,13.00
2022-08-29T14:03:19.665Z,12.40
2022-08-29T14:05:48.088Z,11.63
2022-08-29T14:08:16.303Z,12.33
2022-08-29T14:10:44.914Z,13.33
2022-08-29T14:13:13.358Z,12.27
2022-08-29T14:15:41.760Z,13.30
2022-08-29T14:18:11.871Z,14.20
2022-08-29T14:20:40.238Z,13.30
2022-08-29T14:23:08.349Z,13.60
2022-08-29T14:25:36.510Z,14.17
2022-08-29T14:28:05.099Z,13.93
2022-08-29T14:30:33.495Z,15.60
2022-08-29T14:33:01.725Z,14.40
2022-08-29T14:35:32.310Z,15.70
2022-08-29T14:38:03.804Z,15.40
2022-08-29T14:40:34.173Z,17.10
2022-08-29T14:43:03.484Z,16.13
2022-08-29T14:45:32.951Z,18.07
2022-08-29T14:48:01.158Z,18.00
2022-08-29T14:50:29.270Z,17.07
2022-08-29T14:52:58.794Z,16.30
2022-08-29T14:55:27.226Z,16.87
2022-08-29T14:57:55.348Z,16.60
2022-08-29T15:00:26.810Z,15.20
2022-08-29T15:02:55.011Z,16.20
2022-08-29T15:05:23.782Z,17.23
2022-08-29T15:07:52.188Z,16.40
2022-08-29T15:10:25.359Z,14.80
2022-08-29T15:12:53.919Z,17.20
2022-08-29T15:15:29.170Z,16.10
2022-08-29T15:17:58.016Z,15.50
2022-08-29T15:20:46.710Z,15.90
2022-08-29T15:23:15.030Z,15.23
2022-08-29T15:25:51.885Z,17.60
2022-08-29T15:28:20.703Z,18.43
2022-08-29T15:30:48.954Z,20.50
2022-08-29T15:33:17.124Z,20.07
2022-08-29T15:35:45.265Z,19.70
2022-08-29T15:38:13.385Z,20.57
2022-08-29T15:40:42.302Z,22.67
2022-08-29T15:43:12.172Z,21.70
2022-08-29T15:45:40.802Z,22.43
2022-08-29T15:48:11.692Z,23.93
2022-08-29T15:50:40.048Z,23.87
2022-08-29T15:53:08.331Z,24.10
2022-08-29T15:55:37.596Z,24.63
2022-08-29T15:58:07.164Z,24.73
2022-08-29T16:00:37.013Z,25.10
2022-08-29T16:03:07.134Z,25.17
2022-08-29T16:05:38.277Z,24.07
2022-08-29T16:08:06.855Z,22.73
2022-08-29T16:10:38.715Z,23.17
2022-08-29T16:13:07.262Z,23.47
2022-08-29T16:15:37.087Z,24.20
2022-08-29T16:18:05.995Z,23.47
2022-08-29T16:20:35.368Z,24.67
2022-08-29T16:23:04.792Z,24.53
2022-08-29T16:25:33.558Z,32.47
2022-08-29T16:28:02.254Z,36.10
2022-08-29T16:30:34.564Z,32.17
2022-08-29T16:33:04.146Z,29.53
2022-08-29T16:35:32.432Z,28.77
2022-08-29T16:38:02.501Z,27.17
2022-08-29T16:40:32.265Z,27.83
2022-08-29T16:43:01.622Z,27.40
2022-08-29T16:45:29.831Z,25.30
2022-08-29T16:47:58.022Z,27.30
2022-08-29T16:50:28.628Z,25.13
2022-08-29T16:52:56.802Z,27.67
2022-08-29T16:55:26.263Z,25.20
2022-08-29T16:58:11.870Z,25.03
2022-08-29T17:00:41.276Z,25.90
2022-08-29T17:03:09.687Z,25.10
2022-08-29T17:05:39.214Z,24.80
2022-08-29T17:08:06.170Z,27.63
2022-08-29T17:10:33.167Z,28.23
2022-08-29T17:13:00.171Z,23.60
2022-08-29T17:15:27.187Z,27.30
2022-08-29T17:17:55.293Z,26.13
2022-08-29T17:20:24.437Z,27.13
2022-08-29T17:22:54.429Z,27.07
2022-08-29T17:25:23.077Z,28.20
2022-08-29T17:28:14.307Z,27.50
2022-08-29T17:30:40.433Z,26.87
2022-08-29T17:33:10.720Z,29.20
2022-08-29T17:35:39.725Z,26.37
2022-08-29T17:38:09.692Z,29.40
2022-08-29T17:40:39.961Z,27.10
2022-08-29T17:43:10.105Z,27.50
2022-08-29T17:45:39.421Z,29.20
2022-08-29T17:48:07.654Z,27.23
2022-08-29T17:50:36.321Z,27.30
2022-08-29T17:53:05.130Z,27.37
2022-08-29T17:55:34.625Z,28.83
2022-08-29T17:58:02.812Z,27.93
2022-08-29T18:00:31.522Z,28.30
2022-08-29T18:02:59.777Z,25.77
2022-08-29T18:05:28.072Z,27.37
2022-08-29T18:07:56.947Z,28.60
2022-08-29T18:10:25.807Z,27.40
2022-08-29T18:12:55.272Z,28.60
2022-08-29T18:15:23.582Z,28.23
2022-08-29T18:17:52.034Z,26.50
2022-08-29T18:20:21.678Z,27.60
2022-08-29T18:22:50.526Z,29.10
2022-08-29T18:25:22.379Z,27.70
2022-08-29T18:27:51.418Z,27.33
2022-08-29T18:30:21.141Z,27.77
2022-08-29T18:32:49.422Z,26.53
2022-08-29T18:35:17.578Z,27.40
2022-08-29T18:37:45.698Z,28.20
2022-08-29T18:40:13.890Z,27.67
2022-08-29T18:42:42.062Z,27.07
2022-08-29T18:45:11.184Z,29.20
2022-08-29T18:47:40.670Z,26.37
2022-08-29T18:50:27.135Z,25.80
2022-08-29T18:52:55.708Z,27.87
2022-08-29T18:55:24.170Z,28.20
2022-08-29T18:57:53.417Z,27.63
2022-08-29T19:00:22.307Z,25.83
2022-08-29T19:02:51.991Z,28.30
2022-08-29T19:05:24.530Z,26.13
2022-08-29T19:07:53.125Z,25.43
2022-08-29T19:10:22.488Z,24.73
2022-08-29T19:12:50.975Z,26.40
2022-08-29T19:15:19.477Z,26.80
2022-08-29T19:17:48.009Z,25.97
2022-08-29T19:20:37.826Z,25.07
2022-08-29T19:23:07.045Z,25.27
2022-08-29T19:25:35.767Z,25.57
2022-08-29T19:28:05.878Z,24.67
2022-08-29T19:30:34.648Z,25.10
2022-08-29T19:33:02.797Z,24.17
2022-08-29T19:35:32.366Z,23.50
2022-08-29T19:38:00.944Z,22.20
2022-08-29T19:40:32.615Z,22.47
2022-08-29T19:43:04.296Z,22.50
2022-08-29T19:45:44.225Z,22.80
2022-08-29T19:48:15.410Z,21.40
2022-08-29T19:50:47.389Z,21.40
2022-08-29T19:53:24.697Z,23.63
2022-08-29T19:55:56.203Z,23.87
2022-08-29T19:58:30.970Z,21.60
2022-08-29T20:01:00.167Z,22.53
2022-08-29T20:03:28.898Z,22.83
2022-08-29T20:05:59.615Z,21.97
2022-08-29T20:08:29.266Z,22.37
2022-08-29T20:10:59.663Z,21.97
2022-08-29T20:13:31.579Z,22.20
2022-08-29T20:16:02.396Z,20.10
2022-08-29T20:18:30.610Z,21.03
2022-08-29T20:21:00.217Z,21.13
2022-08-29T20:23:30.188Z,22.43
2022-08-29T20:25:59.954Z,22.20
2022-08-29T20:28:28.338Z,23.97
2022-08-29T20:30:57.344Z,21.57
2022-08-29T20:33:26.639Z,22.37
2022-08-29T20:36:14.471Z,22.67
2022-08-29T20:38:44.249Z,22.40
2022-08-29T20:41:12.383Z,25.50
2022-08-29T20:43:40.892Z,25.40
2022-08-29T20:46:09.365Z,26.40
2022-08-29T20:48:38.458Z,24.60
2022-08-29T20:51:09.738Z,25.67
2022-08-29T20:53:39.331Z,24.20
2022-08-29T20:56:09.545Z,22.90
2022-08-29T20:58:37.670Z,23.20
2022-08-29T21:01:06.100Z,22.60
2022-08-29T21:03:52.753Z,21.73
2022-08-29T21:06:21.829Z,22.63
2022-08-29T21:08:50.267Z,22.00
2022-08-29T21:11:20.059Z,21.93
2022-08-29T21:13:52.525Z,22.80
2022-08-29T21:16:21.844Z,22.37
2022-08-29T21:18:52.311Z,22.20
2022-08-29T21:21:24.719Z,23.20
2022-08-29T21:23:54.142Z,22.83
2022-08-29T21:26:23.576Z,24.27
2022-08-29T21:28:51.652Z,24.37
2022-08-29T21:31:23.380Z,22.80
2022-08-29T21:33:51.647Z,23.47
2022-08-29T21:36:21.325Z,24.00
2022-08-29T21:38:54.145Z,23.00
2022-08-29T21:41:24.667Z,21.53
2022-08-29T21:43:53.008Z,22.63
2022-08-29T21:46:22.994Z,22.00
2022-08-29T21:48:56.528Z,22.40
2022-08-29T21:51:25.650Z,22.40
2022-08-29T21:53:55.694Z,22.50
2022-08-29T21:56:26.296Z,21.80
2022-08-29T21:58:55.793Z,21.20
2022-08-29T22:01:27.633Z,21.50
2022-08-29T22:03:56.121Z,21.93
2022-08-29T22:06:24.619Z,23.23
2022-08-29T22:08:57.608Z,21.97
2022-08-29T22:11:37.511Z,22.33
2022-08-29T22:14:07.342Z,21.90
2022-08-29T22:16:35.670Z,22.50
2022-08-29T22:19:06.877Z,23.10
2022-08-29T22:21:37.249Z,20.70
2022-08-29T22:24:06.689Z,20.33
2022-08-29T22:26:38.019Z,18.17
2022-08-29T22:29:08.277Z,18.27
2022-08-29T22:31:42.384Z,19.23
2022-08-29T22:34:11.168Z,17.83
2022-08-29T22:36:39.361Z,18.50
2022-08-29T22:39:08.157Z,17.97
2022-08-29T22:41:38.152Z,17.53
2022-08-29T22:46:56.054Z,18.33
2022-08-29T22:49:27.656Z,17.90
2022-08-29T22:52:01.413Z,17.60
2022-08-29T22:54:38.635Z,17.27
2022-08-29T22:57:10.267Z,16.20
2022-08-29T22:59:39.260Z,15.10
2022-08-29T23:02:09.112Z,17.60
2022-08-29T23:04:37.938Z,16.57
2022-08-29T23:07:07.423Z,16.40
2022-08-29T23:09:36.549Z,17.23
2022-08-29T23:12:06.287Z,17.37
2022-08-29T23:14:37.319Z,16.40
2022-08-29T23:17:06.667Z,16.50
2022-08-29T23:19:35.516Z,17.67
2022-08-29T23:22:04.386Z,17.90
2022-08-29T23:24:33.899Z,17.17
2022-08-29T23:27:02.003Z,16.37
2022-08-29T23:29:32.699Z,17.00
2022-08-29T23:32:02.480Z,16.77
2022-08-29T23:34:32.736Z,18.30
2022-08-29T23:37:01.131Z,18.20
2022-08-29T23:39:29.260Z,17.60
2022-08-29T23:41:57.346Z,17.93
2022-08-29T23:44:25.468Z,18.37
2022-08-29T23:46:56.690Z,18.27
2022-08-29T23:49:26.409Z,20.07
2022-08-29T23:51:54.472Z,19.00
2022-08-29T23:54:22.575Z,19.30
2022-08-29T23:56:50.767Z,19.80
2022-08-29T23:59:32.720Z,18.63
